LFST 181400Z AUTO 25008KT 9999 SCT040 OVC048 07/00 Q1027 NOSIG

TAF LFST 181100Z 1812/1912 24010KT 9999 BKN035 BECMG 1816/1818 35005KT

 

Temperature in degrees Celsius: 7
Dew Point Temperature in degrees Celsius: 0

 

http://openflyers.com/case/icingChart.php?chart=2&temperature=7&dewPoint=0